sensor_id;sensor_type;location;lat;lon;timestamp;P1;durP1;ratioP1;P2;durP2;ratioP2
76284;SDS011;65096;50.998;7.098;2023-04-01T00:00:30;2.78;;;0.82;;
76284;SDS011;65096;50.998;7.098;2023-04-01T00:02:57;1.42;;;0.52;;
76284;SDS011;65096;50.998;7.098;2023-04-01T00:05:23;2.85;;;0.70;;
76284;SDS011;65096;50.998;7.098;2023-04-01T00:07:51;1.58;;;0.50;;
76284;SDS011;65096;50.998;7.098;2023-04-01T00:10:18;3.83;;;0.60;;
76284;SDS011;65096;50.998;7.098;2023-04-01T00:12:45;1.88;;;0.38;;
76284;SDS011;65096;50.998;7.098;2023-04-01T00:15:12;3.15;;;0.50;;
76284;SDS011;65096;50.998;7.098;2023-04-01T00:17:38;2.15;;;0.50;;
76284;SDS011;65096;50.998;7.098;2023-04-01T00:20:06;2.13;;;0.43;;
76284;SDS011;65096;50.998;7.098;2023-04-01T00:22:34;0.90;;;0.40;;
76284;SDS011;65096;50.998;7.098;2023-04-01T00:25:02;1.23;;;0.40;;
76284;SDS011;65096;50.998;7.098;2023-04-01T00:27:30;2.53;;;0.60;;
76284;SDS011;65096;50.998;7.098;2023-04-01T00:29:56;4.10;;;0.80;;
76284;SDS011;65096;50.998;7.098;2023-04-01T00:32:23;1.92;;;0.60;;
76284;SDS011;65096;50.998;7.098;2023-04-01T00:34:50;1.75;;;0.40;;
76284;SDS011;65096;50.998;7.098;2023-04-01T00:37:18;2.47;;;0.43;;
76284;SDS011;65096;50.998;7.098;2023-04-01T00:39:46;1.10;;;0.50;;
76284;SDS011;65096;50.998;7.098;2023-04-01T00:42:14;1.27;;;0.32;;
76284;SDS011;65096;50.998;7.098;2023-04-01T00:44:41;1.15;;;0.38;;
76284;SDS011;65096;50.998;7.098;2023-04-01T00:47:08;0.95;;;0.30;;
76284;SDS011;65096;50.998;7.098;2023-04-01T00:49:36;1.88;;;0.47;;
76284;SDS011;65096;50.998;7.098;2023-04-01T00:52:05;1.42;;;0.50;;
76284;SDS011;65096;50.998;7.098;2023-04-01T00:54:35;0.98;;;0.30;;
76284;SDS011;65096;50.998;7.098;2023-04-01T00:57:04;2.47;;;0.50;;
76284;SDS011;65096;50.998;7.098;2023-04-01T00:59:37;2.88;;;0.45;;
76284;SDS011;65096;50.998;7.098;2023-04-01T01:02:07;0.45;;;0.28;;
76284;SDS011;65096;50.998;7.098;2023-04-01T01:04:36;1.20;;;0.25;;
76284;SDS011;65096;50.998;7.098;2023-04-01T01:07:07;1.63;;;0.22;;
76284;SDS011;65096;50.998;7.098;2023-04-01T01:09:47;2.65;;;0.60;;
76284;SDS011;65096;50.998;7.098;2023-04-01T01:12:21;1.35;;;0.40;;
76284;SDS011;65096;50.998;7.098;2023-04-01T01:14:55;1.67;;;0.32;;
76284;SDS011;65096;50.998;7.098;2023-04-01T01:17:31;0.63;;;0.20;;
76284;SDS011;65096;50.998;7.098;2023-04-01T01:23:16;1.98;;;0.70;;
76284;SDS011;65096;50.998;7.098;2023-04-01T01:26:01;0.52;;;0.20;;
76284;SDS011;65096;50.998;7.098;2023-04-01T01:28:52;0.93;;;0.35;;
76284;SDS011;65096;50.998;7.098;2023-04-01T01:31:36;1.70;;;0.28;;
76284;SDS011;65096;50.998;7.098;2023-04-01T01:34:11;1.15;;;0.40;;
76284;SDS011;65096;50.998;7.098;2023-04-01T01:36:50;0.45;;;0.30;;
76284;SDS011;65096;50.998;7.098;2023-04-01T01:39:24;1.35;;;0.38;;
76284;SDS011;65096;50.998;7.098;2023-04-01T01:41:55;1.00;;;0.25;;
76284;SDS011;65096;50.998;7.098;2023-04-01T01:44:25;0.73;;;0.40;;
76284;SDS011;65096;50.998;7.098;2023-04-01T01:46:55;1.35;;;0.50;;
76284;SDS011;65096;50.998;7.098;2023-04-01T01:49:22;1.75;;;0.40;;
76284;SDS011;65096;50.998;7.098;2023-04-01T01:51:52;1.17;;;0.50;;
76284;SDS011;65096;50.998;7.098;2023-04-01T01:54:19;1.17;;;0.57;;
76284;SDS011;65096;50.998;7.098;2023-04-01T01:56:46;0.88;;;0.25;;
76284;SDS011;65096;50.998;7.098;2023-04-01T01:59:17;1.52;;;0.40;;
76284;SDS011;65096;50.998;7.098;2023-04-01T02:01:48;1.02;;;0.20;;
76284;SDS011;65096;50.998;7.098;2023-04-01T02:04:17;2.40;;;0.50;;
76284;SDS011;65096;50.998;7.098;2023-04-01T02:06:46;0.20;;;0.20;;
76284;SDS011;65096;50.998;7.098;2023-04-01T02:09:18;1.25;;;0.40;;
76284;SDS011;65096;50.998;7.098;2023-04-01T02:11:47;1.27;;;0.43;;
76284;SDS011;65096;50.998;7.098;2023-04-01T02:14:16;1.58;;;0.50;;
76284;SDS011;65096;50.998;7.098;2023-04-01T02:16:47;2.22;;;0.47;;
76284;SDS011;65096;50.998;7.098;2023-04-01T02:19:18;2.03;;;0.50;;
76284;SDS011;65096;50.998;7.098;2023-04-01T02:21:48;1.13;;;0.50;;
76284;SDS011;65096;50.998;7.098;2023-04-01T02:24:19;2.03;;;0.45;;
76284;SDS011;65096;50.998;7.098;2023-04-01T02:26:47;2.47;;;0.75;;
76284;SDS011;65096;50.998;7.098;2023-04-01T02:29:16;2.13;;;0.70;;
76284;SDS011;65096;50.998;7.098;2023-04-01T02:31:45;1.65;;;0.30;;
76284;SDS011;65096;50.998;7.098;2023-04-01T02:34:13;1.95;;;0.40;;
76284;SDS011;65096;50.998;7.098;2023-04-01T02:36:40;1.75;;;0.50;;
76284;SDS011;65096;50.998;7.098;2023-04-01T02:39:08;2.03;;;0.60;;
76284;SDS011;65096;50.998;7.098;2023-04-01T02:41:39;2.67;;;0.55;;
76284;SDS011;65096;50.998;7.098;2023-04-01T02:44:06;2.80;;;0.73;;
76284;SDS011;65096;50.998;7.098;2023-04-01T02:46:33;2.47;;;0.60;;
76284;SDS011;65096;50.998;7.098;2023-04-01T02:49:00;1.13;;;0.35;;
76284;SDS011;65096;50.998;7.098;2023-04-01T02:51:27;1.52;;;0.63;;
76284;SDS011;65096;50.998;7.098;2023-04-01T02:53:54;2.88;;;0.50;;
76284;SDS011;65096;50.998;7.098;2023-04-01T02:56:20;1.83;;;0.68;;
76284;SDS011;65096;50.998;7.098;2023-04-01T02:58:48;1.15;;;0.40;;
76284;SDS011;65096;50.998;7.098;2023-04-01T03:01:15;0.75;;;0.45;;
76284;SDS011;65096;50.998;7.098;2023-04-01T03:03:42;1.17;;;0.50;;
76284;SDS011;65096;50.998;7.098;2023-04-01T03:06:09;1.98;;;0.57;;
76284;SDS011;65096;50.998;7.098;2023-04-01T03:08:37;1.92;;;0.25;;
76284;SDS011;65096;50.998;7.098;2023-04-01T03:11:05;0.35;;;0.25;;
76284;SDS011;65096;50.998;7.098;2023-04-01T03:13:32;1.95;;;0.40;;
76284;SDS011;65096;50.998;7.098;2023-04-01T03:16:00;0.85;;;0.40;;
76284;SDS011;65096;50.998;7.098;2023-04-01T03:18:27;0.77;;;0.25;;
76284;SDS011;65096;50.998;7.098;2023-04-01T03:20:54;0.98;;;0.40;;
76284;SDS011;65096;50.998;7.098;2023-04-01T03:23:21;0.95;;;0.35;;
76284;SDS011;65096;50.998;7.098;2023-04-01T03:25:49;0.75;;;0.20;;
76284;SDS011;65096;50.998;7.098;2023-04-01T03:28:16;0.90;;;0.35;;
76284;SDS011;65096;50.998;7.098;2023-04-01T03:30:43;0.93;;;0.30;;
76284;SDS011;65096;50.998;7.098;2023-04-01T03:33:11;1.65;;;0.30;;
76284;SDS011;65096;50.998;7.098;2023-04-01T03:35:38;0.15;;;0.15;;
76284;SDS011;65096;50.998;7.098;2023-04-01T03:38:04;0.77;;;0.28;;
76284;SDS011;65096;50.998;7.098;2023-04-01T03:40:31;1.33;;;0.50;;
76284;SDS011;65096;50.998;7.098;2023-04-01T03:43:02;0.98;;;0.35;;
76284;SDS011;65096;50.998;7.098;2023-04-01T03:45:33;0.70;;;0.50;;
76284;SDS011;65096;50.998;7.098;2023-04-01T03:48:00;1.02;;;0.38;;
76284;SDS011;65096;50.998;7.098;2023-04-01T03:50:27;0.65;;;0.40;;
76284;SDS011;65096;50.998;7.098;2023-04-01T03:52:54;0.90;;;0.50;;
76284;SDS011;65096;50.998;7.098;2023-04-01T03:55:21;2.42;;;0.32;;
76284;SDS011;65096;50.998;7.098;2023-04-01T03:57:47;1.17;;;0.43;;
76284;SDS011;65096;50.998;7.098;2023-04-01T04:00:14;1.88;;;0.60;;
76284;SDS011;65096;50.998;7.098;2023-04-01T04:02:41;1.30;;;0.50;;
76284;SDS011;65096;50.998;7.098;2023-04-01T04:05:08;1.02;;;0.45;;
76284;SDS011;65096;50.998;7.098;2023-04-01T04:07:36;1.58;;;0.60;;
76284;SDS011;65096;50.998;7.098;2023-04-01T04:10:04;3.30;;;0.50;;
76284;SDS011;65096;50.998;7.098;2023-04-01T04:12:31;1.85;;;0.50;;
76284;SDS011;65096;50.998;7.098;2023-04-01T04:14:58;0.93;;;0.60;;
76284;SDS011;65096;50.998;7.098;2023-04-01T04:17:24;1.30;;;0.35;;
76284;SDS011;65096;50.998;7.098;2023-04-01T04:19:51;0.63;;;0.52;;
76284;SDS011;65096;50.998;7.098;2023-04-01T04:22:18;0.32;;;0.32;;
76284;SDS011;65096;50.998;7.098;2023-04-01T04:24:46;1.20;;;0.50;;
76284;SDS011;65096;50.998;7.098;2023-04-01T04:27:12;0.65;;;0.40;;
76284;SDS011;65096;50.998;7.098;2023-04-01T04:29:39;2.70;;;0.57;;
76284;SDS011;65096;50.998;7.098;2023-04-01T04:32:06;1.20;;;0.50;;
76284;SDS011;65096;50.998;7.098;2023-04-01T04:34:33;1.15;;;0.40;;
76284;SDS011;65096;50.998;7.098;2023-04-01T04:36:59;0.30;;;0.30;;
76284;SDS011;65096;50.998;7.098;2023-04-01T04:39:26;1.58;;;0.50;;
76284;SDS011;65096;50.998;7.098;2023-04-01T04:41:54;0.80;;;0.40;;
76284;SDS011;65096;50.998;7.098;2023-04-01T04:44:22;1.08;;;0.60;;
76284;SDS011;65096;50.998;7.098;2023-04-01T04:46:49;1.13;;;0.60;;
76284;SDS011;65096;50.998;7.098;2023-04-01T04:49:16;0.50;;;0.32;;
76284;SDS011;65096;50.998;7.098;2023-04-01T04:51:42;1.35;;;0.40;;
76284;SDS011;65096;50.998;7.098;2023-04-01T04:54:10;0.95;;;0.22;;
76284;SDS011;65096;50.998;7.098;2023-04-01T04:56:37;0.68;;;0.30;;
76284;SDS011;65096;50.998;7.098;2023-04-01T04:59:05;1.13;;;0.40;;
76284;SDS011;65096;50.998;7.098;2023-04-01T05:01:32;1.08;;;0.50;;
76284;SDS011;65096;50.998;7.098;2023-04-01T05:03:59;1.08;;;0.40;;
76284;SDS011;65096;50.998;7.098;2023-04-01T05:06:26;2.03;;;0.95;;
76284;SDS011;65096;50.998;7.098;2023-04-01T05:08:54;0.30;;;0.30;;
76284;SDS011;65096;50.998;7.098;2023-04-01T05:11:21;1.75;;;0.38;;
76284;SDS011;65096;50.998;7.098;2023-04-01T05:13:48;0.40;;;0.30;;
76284;SDS011;65096;50.998;7.098;2023-04-01T05:16:18;0.50;;;0.20;;
76284;SDS011;65096;50.998;7.098;2023-04-01T05:18:47;0.40;;;0.38;;
76284;SDS011;65096;50.998;7.098;2023-04-01T05:21:14;1.08;;;0.35;;
76284;SDS011;65096;50.998;7.098;2023-04-01T05:23:41;0.95;;;0.40;;
76284;SDS011;65096;50.998;7.098;2023-04-01T05:26:09;0.75;;;0.30;;
76284;SDS011;65096;50.998;7.098;2023-04-01T05:28:38;1.17;;;0.40;;
76284;SDS011;65096;50.998;7.098;2023-04-01T05:31:05;0.88;;;0.30;;
76284;SDS011;65096;50.998;7.098;2023-04-01T05:33:34;0.43;;;0.30;;
76284;SDS011;65096;50.998;7.098;2023-04-01T05:36:07;1.10;;;0.40;;
76284;SDS011;65096;50.998;7.098;2023-04-01T05:38:35;1.75;;;0.50;;
76284;SDS011;65096;50.998;7.098;2023-04-01T05:41:02;2.33;;;0.40;;
76284;SDS011;65096;50.998;7.098;2023-04-01T05:43:29;1.85;;;0.57;;
76284;SDS011;65096;50.998;7.098;2023-04-01T05:45:56;1.50;;;0.40;;
76284;SDS011;65096;50.998;7.098;2023-04-01T05:48:23;0.98;;;0.63;;
76284;SDS011;65096;50.998;7.098;2023-04-01T05:50:51;0.45;;;0.40;;
76284;SDS011;65096;50.998;7.098;2023-04-01T05:53:18;0.30;;;0.30;;
76284;SDS011;65096;50.998;7.098;2023-04-01T05:55:44;1.98;;;0.57;;
76284;SDS011;65096;50.998;7.098;2023-04-01T05:58:11;1.45;;;0.60;;
76284;SDS011;65096;50.998;7.098;2023-04-01T06:00:38;0.68;;;0.68;;
76284;SDS011;65096;50.998;7.098;2023-04-01T06:03:05;1.05;;;0.45;;
76284;SDS011;65096;50.998;7.098;2023-04-01T06:05:36;1.48;;;0.50;;
76284;SDS011;65096;50.998;7.098;2023-04-01T06:08:09;1.58;;;0.50;;
76284;SDS011;65096;50.998;7.098;2023-04-01T06:10:39;0.57;;;0.30;;
76284;SDS011;65096;50.998;7.098;2023-04-01T06:13:17;0.55;;;0.40;;
76284;SDS011;65096;50.998;7.098;2023-04-01T06:15:53;0.75;;;0.47;;
76284;SDS011;65096;50.998;7.098;2023-04-01T06:21:32;0.60;;;0.60;;
76284;SDS011;65096;50.998;7.098;2023-04-01T06:24:15;1.30;;;0.40;;
76284;SDS011;65096;50.998;7.098;2023-04-01T06:29:41;0.90;;;0.63;;
76284;SDS011;65096;50.998;7.098;2023-04-01T06:35:25;0.80;;;0.80;;
76284;SDS011;65096;50.998;7.098;2023-04-01T06:38:06;0.98;;;0.80;;
76284;SDS011;65096;50.998;7.098;2023-04-01T06:40:47;1.08;;;0.98;;
76284;SDS011;65096;50.998;7.098;2023-04-01T06:43:46;1.02;;;0.80;;
76284;SDS011;65096;50.998;7.098;2023-04-01T06:46:23;2.38;;;1.08;;
76284;SDS011;65096;50.998;7.098;2023-04-01T06:49:02;2.15;;;0.90;;
76284;SDS011;65096;50.998;7.098;2023-04-01T06:51:39;1.70;;;0.90;;
76284;SDS011;65096;50.998;7.098;2023-04-01T06:54:15;1.48;;;0.80;;
76284;SDS011;65096;50.998;7.098;2023-04-01T06:56:48;1.27;;;0.90;;
76284;SDS011;65096;50.998;7.098;2023-04-01T06:59:21;3.00;;;1.10;;
76284;SDS011;65096;50.998;7.098;2023-04-01T07:01:52;2.45;;;1.10;;
76284;SDS011;65096;50.998;7.098;2023-04-01T07:04:22;1.45;;;0.70;;
76284;SDS011;65096;50.998;7.098;2023-04-01T07:06:52;2.03;;;1.05;;
76284;SDS011;65096;50.998;7.098;2023-04-01T07:09:22;2.95;;;1.30;;
76284;SDS011;65096;50.998;7.098;2023-04-01T07:11:55;2.45;;;1.05;;
76284;SDS011;65096;50.998;7.098;2023-04-01T07:14:27;1.77;;;0.93;;
76284;SDS011;65096;50.998;7.098;2023-04-01T07:16:59;2.35;;;1.05;;
76284;SDS011;65096;50.998;7.098;2023-04-01T07:19:32;1.40;;;1.10;;
76284;SDS011;65096;50.998;7.098;2023-04-01T07:24:32;2.30;;;1.10;;
76284;SDS011;65096;50.998;7.098;2023-04-01T07:27:02;2.10;;;1.20;;
76284;SDS011;65096;50.998;7.098;2023-04-01T07:29:31;4.45;;;1.40;;
76284;SDS011;65096;50.998;7.098;2023-04-01T07:32:09;3.97;;;1.60;;
76284;SDS011;65096;50.998;7.098;2023-04-01T07:34:50;2.63;;;1.27;;
76284;SDS011;65096;50.998;7.098;2023-04-01T07:37:28;3.08;;;1.13;;
76284;SDS011;65096;50.998;7.098;2023-04-01T07:40:04;2.28;;;1.17;;
76284;SDS011;65096;50.998;7.098;2023-04-01T07:42:47;2.88;;;1.35;;
76284;SDS011;65096;50.998;7.098;2023-04-01T07:45:26;1.98;;;1.20;;
76284;SDS011;65096;50.998;7.098;2023-04-01T07:48:01;3.03;;;1.20;;
76284;SDS011;65096;50.998;7.098;2023-04-01T07:50:38;3.42;;;1.27;;
76284;SDS011;65096;50.998;7.098;2023-04-01T07:53:13;2.97;;;1.17;;
76284;SDS011;65096;50.998;7.098;2023-04-01T07:55:50;4.57;;;0.90;;
76284;SDS011;65096;50.998;7.098;2023-04-01T07:58:29;1.77;;;1.20;;
76284;SDS011;65096;50.998;7.098;2023-04-01T08:01:05;2.35;;;1.10;;
76284;SDS011;65096;50.998;7.098;2023-04-01T08:03:44;2.08;;;0.90;;
76284;SDS011;65096;50.998;7.098;2023-04-01T08:06:31;2.08;;;1.15;;
76284;SDS011;65096;50.998;7.098;2023-04-01T08:09:04;3.60;;;1.40;;
76284;SDS011;65096;50.998;7.098;2023-04-01T08:11:41;1.80;;;1.10;;
76284;SDS011;65096;50.998;7.098;2023-04-01T08:14:22;1.85;;;0.85;;
76284;SDS011;65096;50.998;7.098;2023-04-01T08:16:57;2.72;;;1.65;;
76284;SDS011;65096;50.998;7.098;2023-04-01T08:19:30;2.35;;;1.10;;
76284;SDS011;65096;50.998;7.098;2023-04-01T08:22:16;1.55;;;0.82;;
76284;SDS011;65096;50.998;7.098;2023-04-01T08:24:51;3.28;;;1.05;;
76284;SDS011;65096;50.998;7.098;2023-04-01T08:27:26;3.17;;;0.90;;
76284;SDS011;65096;50.998;7.098;2023-04-01T08:29:59;0.47;;;0.43;;
76284;SDS011;65096;50.998;7.098;2023-04-01T08:32:31;1.05;;;0.90;;
76284;SDS011;65096;50.998;7.098;2023-04-01T08:35:07;2.42;;;1.00;;
76284;SDS011;65096;50.998;7.098;2023-04-01T08:37:40;2.15;;;1.08;;
76284;SDS011;65096;50.998;7.098;2023-04-01T08:40:19;1.35;;;0.93;;
76284;SDS011;65096;50.998;7.098;2023-04-01T08:43:00;1.63;;;0.77;;
76284;SDS011;65096;50.998;7.098;2023-04-01T08:45:46;2.10;;;1.55;;
76284;SDS011;65096;50.998;7.098;2023-04-01T08:48:25;1.67;;;0.88;;
76284;SDS011;65096;50.998;7.098;2023-04-01T08:51:15;1.00;;;0.90;;
76284;SDS011;65096;50.998;7.098;2023-04-01T08:54:21;2.03;;;0.90;;
76284;SDS011;65096;50.998;7.098;2023-04-01T08:57:04;1.67;;;0.90;;
76284;SDS011;65096;50.998;7.098;2023-04-01T08:59:44;1.25;;;0.95;;
76284;SDS011;65096;50.998;7.098;2023-04-01T09:02:28;2.13;;;0.82;;
76284;SDS011;65096;50.998;7.098;2023-04-01T09:05:22;1.80;;;0.90;;
76284;SDS011;65096;50.998;7.098;2023-04-01T09:08:03;2.30;;;1.23;;
76284;SDS011;65096;50.998;7.098;2023-04-01T09:10:59;2.05;;;1.15;;
76284;SDS011;65096;50.998;7.098;2023-04-01T09:13:44;1.45;;;0.90;;
76284;SDS011;65096;50.998;7.098;2023-04-01T09:16:25;3.20;;;1.20;;
76284;SDS011;65096;50.998;7.098;2023-04-01T09:22:07;2.10;;;0.68;;
76284;SDS011;65096;50.998;7.098;2023-04-01T09:24:47;0.93;;;0.85;;
76284;SDS011;65096;50.998;7.098;2023-04-01T09:27:51;0.63;;;0.63;;
76284;SDS011;65096;50.998;7.098;2023-04-01T09:30:31;2.17;;;0.70;;
76284;SDS011;65096;50.998;7.098;2023-04-01T09:33:15;2.22;;;0.88;;
76284;SDS011;65096;50.998;7.098;2023-04-01T09:36:14;0.55;;;0.47;;
76284;SDS011;65096;50.998;7.098;2023-04-01T09:38:56;1.67;;;0.80;;
76284;SDS011;65096;50.998;7.098;2023-04-01T09:41:28;1.65;;;0.68;;
76284;SDS011;65096;50.998;7.098;2023-04-01T09:44:00;1.88;;;0.88;;
76284;SDS011;65096;50.998;7.098;2023-04-01T09:46:37;1.58;;;0.73;;
76284;SDS011;65096;50.998;7.098;2023-04-01T09:49:36;1.42;;;0.75;;
76284;SDS011;65096;50.998;7.098;2023-04-01T09:52:26;1.10;;;1.00;;
76284;SDS011;65096;50.998;7.098;2023-04-01T09:55:02;1.70;;;1.02;;
76284;SDS011;65096;50.998;7.098;2023-04-01T10:01:02;2.47;;;1.30;;
76284;SDS011;65096;50.998;7.098;2023-04-01T10:13:18;2.60;;;1.48;;
76284;SDS011;65096;50.998;7.098;2023-04-01T10:25:15;2.67;;;1.40;;
76284;SDS011;65096;50.998;7.098;2023-04-01T10:28:12;2.08;;;1.23;;
76284;SDS011;65096;50.998;7.098;2023-04-01T10:31:01;2.97;;;1.50;;
76284;SDS011;65096;50.998;7.098;2023-04-01T10:34:01;3.00;;;1.70;;
76284;SDS011;65096;50.998;7.098;2023-04-01T10:36:43;3.75;;;1.55;;
76284;SDS011;65096;50.998;7.098;2023-04-01T10:49:09;2.72;;;1.38;;
76284;SDS011;65096;50.998;7.098;2023-04-01T10:54:56;5.18;;;1.50;;
76284;SDS011;65096;50.998;7.098;2023-04-01T10:57:46;3.67;;;1.52;;
76284;SDS011;65096;50.998;7.098;2023-04-01T11:00:44;3.17;;;1.60;;
76284;SDS011;65096;50.998;7.098;2023-04-01T11:19:10;4.03;;;1.88;;
76284;SDS011;65096;50.998;7.098;2023-04-01T11:22:08;7.72;;;2.03;;
76284;SDS011;65096;50.998;7.098;2023-04-01T11:25:09;2.80;;;1.13;;
76284;SDS011;65096;50.998;7.098;2023-04-01T11:27:57;3.42;;;1.60;;
76284;SDS011;65096;50.998;7.098;2023-04-01T11:30:53;3.53;;;1.95;;
76284;SDS011;65096;50.998;7.098;2023-04-01T11:33:36;3.58;;;1.70;;
76284;SDS011;65096;50.998;7.098;2023-04-01T11:36:20;3.83;;;1.90;;
76284;SDS011;65096;50.998;7.098;2023-04-01T11:39:11;3.53;;;2.03;;
76284;SDS011;65096;50.998;7.098;2023-04-01T11:41:51;3.50;;;1.75;;
76284;SDS011;65096;50.998;7.098;2023-04-01T11:44:28;3.78;;;1.83;;
76284;SDS011;65096;50.998;7.098;2023-04-01T11:47:03;4.35;;;2.00;;
76284;SDS011;65096;50.998;7.098;2023-04-01T11:49:56;1.70;;;1.00;;
76284;SDS011;65096;50.998;7.098;2023-04-01T11:55:32;3.80;;;1.88;;
76284;SDS011;65096;50.998;7.098;2023-04-01T11:58:18;4.53;;;1.98;;
76284;SDS011;65096;50.998;7.098;2023-04-01T12:01:03;3.38;;;1.50;;
76284;SDS011;65096;50.998;7.098;2023-04-01T12:03:58;3.55;;;1.80;;
76284;SDS011;65096;50.998;7.098;2023-04-01T12:06:41;2.67;;;1.30;;
76284;SDS011;65096;50.998;7.098;2023-04-01T12:09:16;2.78;;;1.60;;
76284;SDS011;65096;50.998;7.098;2023-04-01T12:11:53;3.08;;;1.73;;
76284;SDS011;65096;50.998;7.098;2023-04-01T12:14:39;3.05;;;1.50;;
76284;SDS011;65096;50.998;7.098;2023-04-01T12:17:17;3.08;;;1.65;;
76284;SDS011;65096;50.998;7.098;2023-04-01T12:19:54;3.13;;;1.67;;
76284;SDS011;65096;50.998;7.098;2023-04-01T12:22:30;3.88;;;1.92;;
76284;SDS011;65096;50.998;7.098;2023-04-01T12:25:19;3.78;;;1.88;;
76284;SDS011;65096;50.998;7.098;2023-04-01T12:27:59;3.13;;;1.60;;
76284;SDS011;65096;50.998;7.098;2023-04-01T12:30:35;3.95;;;1.88;;
76284;SDS011;65096;50.998;7.098;2023-04-01T12:36:29;3.72;;;1.90;;
76284;SDS011;65096;50.998;7.098;2023-04-01T12:39:13;3.72;;;2.10;;
76284;SDS011;65096;50.998;7.098;2023-04-01T12:41:48;2.53;;;1.52;;
76284;SDS011;65096;50.998;7.098;2023-04-01T12:44:33;3.25;;;1.35;;
76284;SDS011;65096;50.998;7.098;2023-04-01T12:47:16;2.75;;;1.55;;
76284;SDS011;65096;50.998;7.098;2023-04-01T12:50:16;3.92;;;1.88;;
76284;SDS011;65096;50.998;7.098;2023-04-01T12:53:08;3.10;;;1.60;;
76284;SDS011;65096;50.998;7.098;2023-04-01T12:55:52;3.38;;;1.65;;
76284;SDS011;65096;50.998;7.098;2023-04-01T13:01:22;4.25;;;1.85;;
76284;SDS011;65096;50.998;7.098;2023-04-01T13:04:01;3.25;;;1.75;;
76284;SDS011;65096;50.998;7.098;2023-04-01T13:09:27;2.22;;;1.33;;
76284;SDS011;65096;50.998;7.098;2023-04-01T13:12:14;2.60;;;1.40;;
76284;SDS011;65096;50.998;7.098;2023-04-01T13:17:49;3.17;;;1.58;;
76284;SDS011;65096;50.998;7.098;2023-04-01T13:20:23;3.25;;;1.98;;
76284;SDS011;65096;50.998;7.098;2023-04-01T13:23:01;2.97;;;1.70;;
76284;SDS011;65096;50.998;7.098;2023-04-01T13:25:39;2.95;;;1.70;;
76284;SDS011;65096;50.998;7.098;2023-04-01T13:28:15;4.82;;;1.80;;
76284;SDS011;65096;50.998;7.098;2023-04-01T13:30:48;3.58;;;1.88;;
76284;SDS011;65096;50.998;7.098;2023-04-01T13:33:21;3.55;;;1.63;;
76284;SDS011;65096;50.998;7.098;2023-04-01T13:36:01;2.67;;;1.60;;
76284;SDS011;65096;50.998;7.098;2023-04-01T13:38:41;3.80;;;1.60;;
76284;SDS011;65096;50.998;7.098;2023-04-01T13:41:26;3.50;;;1.63;;
76284;SDS011;65096;50.998;7.098;2023-04-01T13:44:06;2.17;;;1.40;;
76284;SDS011;65096;50.998;7.098;2023-04-01T13:46:46;3.95;;;1.75;;
76284;SDS011;65096;50.998;7.098;2023-04-01T13:49:27;3.05;;;1.60;;
76284;SDS011;65096;50.998;7.098;2023-04-01T13:55:07;5.38;;;2.15;;
76284;SDS011;65096;50.998;7.098;2023-04-01T13:58:07;4.93;;;2.15;;
76284;SDS011;65096;50.998;7.098;2023-04-01T14:00:54;3.95;;;2.00;;
76284;SDS011;65096;50.998;7.098;2023-04-01T14:03:28;4.55;;;2.15;;
76284;SDS011;65096;50.998;7.098;2023-04-01T14:06:16;3.20;;;1.70;;
76284;SDS011;65096;50.998;7.098;2023-04-01T14:09:03;3.78;;;1.80;;
76284;SDS011;65096;50.998;7.098;2023-04-01T14:11:53;4.38;;;1.90;;
76284;SDS011;65096;50.998;7.098;2023-04-01T14:14:30;4.68;;;2.10;;
76284;SDS011;65096;50.998;7.098;2023-04-01T14:17:15;4.78;;;2.03;;
76284;SDS011;65096;50.998;7.098;2023-04-01T14:20:15;4.28;;;1.95;;
76284;SDS011;65096;50.998;7.098;2023-04-01T14:22:55;4.40;;;2.45;;
76284;SDS011;65096;50.998;7.098;2023-04-01T14:25:50;4.60;;;2.17;;
76284;SDS011;65096;50.998;7.098;2023-04-01T14:28:30;4.78;;;2.33;;
76284;SDS011;65096;50.998;7.098;2023-04-01T14:31:12;4.55;;;2.30;;
76284;SDS011;65096;50.998;7.098;2023-04-01T14:33:58;7.45;;;2.50;;
76284;SDS011;65096;50.998;7.098;2023-04-01T14:36:41;4.60;;;2.35;;
76284;SDS011;65096;50.998;7.098;2023-04-01T14:39:20;4.20;;;2.17;;
76284;SDS011;65096;50.998;7.098;2023-04-01T14:42:06;4.00;;;2.15;;
76284;SDS011;65096;50.998;7.098;2023-04-01T14:44:53;4.85;;;2.30;;
76284;SDS011;65096;50.998;7.098;2023-04-01T14:47:34;5.05;;;2.33;;
76284;SDS011;65096;50.998;7.098;2023-04-01T14:50:12;5.57;;;2.47;;
76284;SDS011;65096;50.998;7.098;2023-04-01T14:52:42;5.05;;;2.25;;
76284;SDS011;65096;50.998;7.098;2023-04-01T14:55:21;7.63;;;2.97;;
76284;SDS011;65096;50.998;7.098;2023-04-01T14:58:07;8.32;;;3.42;;
76284;SDS011;65096;50.998;7.098;2023-04-01T15:03:33;6.00;;;2.67;;
76284;SDS011;65096;50.998;7.098;2023-04-01T15:06:16;6.40;;;2.80;;
76284;SDS011;65096;50.998;7.098;2023-04-01T15:09:01;6.13;;;2.75;;
76284;SDS011;65096;50.998;7.098;2023-04-01T15:11:40;7.45;;;3.25;;
76284;SDS011;65096;50.998;7.098;2023-04-01T15:14:23;7.05;;;3.05;;
76284;SDS011;65096;50.998;7.098;2023-04-01T15:17:05;7.38;;;3.60;;
76284;SDS011;65096;50.998;7.098;2023-04-01T15:19:51;6.80;;;3.58;;
76284;SDS011;65096;50.998;7.098;2023-04-01T15:22:39;8.55;;;3.40;;
76284;SDS011;65096;50.998;7.098;2023-04-01T15:25:30;7.20;;;3.65;;
76284;SDS011;65096;50.998;7.098;2023-04-01T15:28:07;7.35;;;3.40;;
76284;SDS011;65096;50.998;7.098;2023-04-01T15:30:47;9.98;;;3.90;;
76284;SDS011;65096;50.998;7.098;2023-04-01T15:33:30;7.78;;;3.50;;
76284;SDS011;65096;50.998;7.098;2023-04-01T15:36:12;7.47;;;3.70;;
76284;SDS011;65096;50.998;7.098;2023-04-01T15:38:52;8.10;;;3.50;;
76284;SDS011;65096;50.998;7.098;2023-04-01T15:41:22;8.65;;;4.20;;
76284;SDS011;65096;50.998;7.098;2023-04-01T15:43:53;7.97;;;3.75;;
76284;SDS011;65096;50.998;7.098;2023-04-01T15:49:27;8.05;;;3.88;;
76284;SDS011;65096;50.998;7.098;2023-04-01T15:52:03;9.05;;;4.47;;
76284;SDS011;65096;50.998;7.098;2023-04-01T15:57:49;8.30;;;4.03;;
76284;SDS011;65096;50.998;7.098;2023-04-01T16:00:30;7.85;;;3.53;;
76284;SDS011;65096;50.998;7.098;2023-04-01T16:03:13;6.28;;;3.22;;
76284;SDS011;65096;50.998;7.098;2023-04-01T16:05:55;6.30;;;3.05;;
76284;SDS011;65096;50.998;7.098;2023-04-01T16:11:37;6.68;;;3.03;;
76284;SDS011;65096;50.998;7.098;2023-04-01T16:14:12;7.30;;;3.65;;
76284;SDS011;65096;50.998;7.098;2023-04-01T16:16:50;9.50;;;3.53;;
76284;SDS011;65096;50.998;7.098;2023-04-01T16:19:39;6.40;;;2.88;;
76284;SDS011;65096;50.998;7.098;2023-04-01T16:22:18;7.13;;;3.10;;
76284;SDS011;65096;50.998;7.098;2023-04-01T16:24:51;7.40;;;3.53;;
76284;SDS011;65096;50.998;7.098;2023-04-01T16:27:24;6.28;;;2.92;;
76284;SDS011;65096;50.998;7.098;2023-04-01T16:29:56;7.72;;;3.38;;
76284;SDS011;65096;50.998;7.098;2023-04-01T16:32:29;7.28;;;3.10;;
76284;SDS011;65096;50.998;7.098;2023-04-01T16:35:15;7.85;;;3.50;;
76284;SDS011;65096;50.998;7.098;2023-04-01T16:37:52;6.55;;;2.95;;
76284;SDS011;65096;50.998;7.098;2023-04-01T16:40:25;6.22;;;2.83;;
76284;SDS011;65096;50.998;7.098;2023-04-01T16:43:10;7.70;;;3.50;;
76284;SDS011;65096;50.998;7.098;2023-04-01T16:45:42;8.07;;;3.70;;
76284;SDS011;65096;50.998;7.098;2023-04-01T16:48:14;9.65;;;4.00;;
76284;SDS011;65096;50.998;7.098;2023-04-01T16:50:54;7.85;;;3.60;;
76284;SDS011;65096;50.998;7.098;2023-04-01T16:53:30;7.75;;;4.03;;
76284;SDS011;65096;50.998;7.098;2023-04-01T16:56:07;7.00;;;3.35;;
76284;SDS011;65096;50.998;7.098;2023-04-01T16:58:41;6.80;;;2.95;;
76284;SDS011;65096;50.998;7.098;2023-04-01T17:01:24;4.53;;;1.85;;
76284;SDS011;65096;50.998;7.098;2023-04-01T17:03:57;7.15;;;3.22;;
76284;SDS011;65096;50.998;7.098;2023-04-01T17:06:30;6.82;;;3.53;;
76284;SDS011;65096;50.998;7.098;2023-04-01T17:09:14;6.00;;;2.47;;
76284;SDS011;65096;50.998;7.098;2023-04-01T17:11:54;6.70;;;3.05;;
76284;SDS011;65096;50.998;7.098;2023-04-01T17:14:28;6.85;;;3.20;;
76284;SDS011;65096;50.998;7.098;2023-04-01T17:17:17;6.70;;;3.47;;